sensor_id;sensor_type;location;lat;lon;timestamp;pressure;altitude;pressure_sealevel;temperature;humidity
49104;BME280;34915;52.926;11.116;2023-04-25T00:02:09;100430.25;;;9.00;88.57
49104;BME280;34915;52.926;11.116;2023-04-25T00:04:35;100417.81;;;9.02;89.18
49104;BME280;34915;52.926;11.116;2023-04-25T00:07:00;100414.41;;;9.00;88.24
49104;BME280;34915;52.926;11.116;2023-04-25T00:09:29;100420.03;;;8.96;88.72
49104;BME280;34915;52.926;11.116;2023-04-25T00:11:55;100423.75;;;8.93;88.66
49104;BME280;34915;52.926;11.116;2023-04-25T00:14:20;100438.50;;;8.96;88.66
49104;BME280;34915;52.926;11.116;2023-04-25T00:16:46;100421.63;;;8.98;88.97
49104;BME280;34915;52.926;11.116;2023-04-25T00:19:13;100429.97;;;8.92;89.43
49104;BME280;34915;52.926;11.116;2023-04-25T00:21:39;100427.09;;;8.95;88.40
49104;BME280;34915;52.926;11.116;2023-04-25T00:24:06;100436.19;;;8.91;89.96
49104;BME280;34915;52.926;11.116;2023-04-25T00:26:33;100426.81;;;8.87;89.08
49104;BME280;34915;52.926;11.116;2023-04-25T00:28:59;100431.78;;;8.92;89.94
49104;BME280;34915;52.926;11.116;2023-04-25T00:31:25;100432.91;;;9.00;88.97
49104;BME280;34915;52.926;11.116;2023-04-25T00:33:51;100422.25;;;8.89;88.87
49104;BME280;34915;52.926;11.116;2023-04-25T00:36:16;100431.31;;;8.85;89.55
49104;BME280;34915;52.926;11.116;2023-04-25T00:38:43;100430.91;;;8.91;90.06
49104;BME280;34915;52.926;11.116;2023-04-25T00:41:08;100434.09;;;8.96;89.10
49104;BME280;34915;52.926;11.116;2023-04-25T00:43:36;100437.88;;;8.92;90.14
49104;BME280;34915;52.926;11.116;2023-04-25T00:46:01;100432.19;;;8.86;89.73
49104;BME280;34915;52.926;11.116;2023-04-25T00:48:27;100441.38;;;8.81;90.47
49104;BME280;34915;52.926;11.116;2023-04-25T00:50:54;100431.75;;;8.80;89.90
49104;BME280;34915;52.926;11.116;2023-04-25T00:53:21;100449.94;;;8.72;89.87
49104;BME280;34915;52.926;11.116;2023-04-25T00:55:47;100445.06;;;8.78;89.99
49104;BME280;34915;52.926;11.116;2023-04-25T00:58:19;100446.09;;;8.76;90.35
49104;BME280;34915;52.926;11.116;2023-04-25T01:00:46;100428.25;;;8.67;89.15
49104;BME280;34915;52.926;11.116;2023-04-25T01:03:13;100447.16;;;8.61;90.55
49104;BME280;34915;52.926;11.116;2023-04-25T01:05:40;100440.59;;;8.54;91.54
49104;BME280;34915;52.926;11.116;2023-04-25T01:08:06;100439.34;;;8.47;91.55
49104;BME280;34915;52.926;11.116;2023-04-25T01:10:32;100437.63;;;8.46;92.26
49104;BME280;34915;52.926;11.116;2023-04-25T01:12:58;100434.06;;;8.47;92.35
49104;BME280;34915;52.926;11.116;2023-04-25T01:15:23;100443.13;;;8.43;91.95
49104;BME280;34915;52.926;11.116;2023-04-25T01:17:49;100439.34;;;8.47;92.06
49104;BME280;34915;52.926;11.116;2023-04-25T01:20:15;100442.09;;;8.45;92.11
49104;BME280;34915;52.926;11.116;2023-04-25T01:22:42;100441.22;;;8.45;92.82
49104;BME280;34915;52.926;11.116;2023-04-25T01:25:08;100442.19;;;8.44;92.84
49104;BME280;34915;52.926;11.116;2023-04-25T01:27:36;100439.53;;;8.44;92.76
49104;BME280;34915;52.926;11.116;2023-04-25T01:33:37;100448.19;;;8.46;93.59
49104;BME280;34915;52.926;11.116;2023-04-25T01:36:03;100453.69;;;8.43;94.24
49104;BME280;34915;52.926;11.116;2023-04-25T01:38:29;100437.84;;;8.43;95.04
49104;BME280;34915;52.926;11.116;2023-04-25T01:40:55;100441.00;;;8.48;94.10
49104;BME280;34915;52.926;11.116;2023-04-25T01:43:21;100425.78;;;8.39;94.39
49104;BME280;34915;52.926;11.116;2023-04-25T01:45:48;100438.69;;;8.43;95.43
49104;BME280;34915;52.926;11.116;2023-04-25T01:48:14;100443.31;;;8.40;95.26
49104;BME280;34915;52.926;11.116;2023-04-25T01:50:44;100439.53;;;8.44;96.04
49104;BME280;34915;52.926;11.116;2023-04-25T01:53:10;100451.97;;;8.42;96.64
49104;BME280;34915;52.926;11.116;2023-04-25T01:55:38;100446.38;;;8.46;96.71
49104;BME280;34915;52.926;11.116;2023-04-25T01:58:04;100449.69;;;8.50;96.66
49104;BME280;34915;52.926;11.116;2023-04-25T02:00:35;100454.97;;;8.50;97.19
49104;BME280;34915;52.926;11.116;2023-04-25T02:03:03;100453.69;;;8.43;97.31
49104;BME280;34915;52.926;11.116;2023-04-25T02:05:34;100454.50;;;8.43;98.38
49104;BME280;34915;52.926;11.116;2023-04-25T02:08:00;100463.81;;;8.49;98.27
49104;BME280;34915;52.926;11.116;2023-04-25T02:14:07;100453.69;;;8.55;98.47
49104;BME280;34915;52.926;11.116;2023-04-25T02:16:33;100453.06;;;8.52;99.38
49104;BME280;34915;52.926;11.116;2023-04-25T02:18:58;100458.53;;;8.49;98.62
49104;BME280;34915;52.926;11.116;2023-04-25T02:21:24;100460.44;;;8.47;98.78
49104;BME280;34915;52.926;11.116;2023-04-25T02:23:51;100459.16;;;8.40;99.57
49104;BME280;34915;52.926;11.116;2023-04-25T02:26:17;100459.16;;;8.40;99.90
49104;BME280;34915;52.926;11.116;2023-04-25T02:28:42;100460.41;;;8.34;100.00
49104;BME280;34915;52.926;11.116;2023-04-25T02:31:08;100459.16;;;8.40;100.00
49104;BME280;34915;52.926;11.116;2023-04-25T02:33:34;100465.94;;;8.44;100.00
49104;BME280;34915;52.926;11.116;2023-04-25T02:35:59;100464.03;;;8.46;100.00
49104;BME280;34915;52.926;11.116;2023-04-25T02:38:25;100459.38;;;8.37;100.00
49104;BME280;34915;52.926;11.116;2023-04-25T02:40:51;100463.78;;;8.36;100.00
49104;BME280;34915;52.926;11.116;2023-04-25T02:43:16;100455.22;;;8.33;100.00
49104;BME280;34915;52.926;11.116;2023-04-25T02:45:42;100463.34;;;8.30;100.00
49104;BME280;34915;52.926;11.116;2023-04-25T02:48:07;100459.97;;;8.28;100.00
49104;BME280;34915;52.926;11.116;2023-04-25T02:50:33;100461.84;;;8.26;100.00
49104;BME280;34915;52.926;11.116;2023-04-25T02:52:58;100467.53;;;8.20;100.00
49104;BME280;34915;52.926;11.116;2023-04-25T02:55:24;100469.03;;;8.24;100.00
49104;BME280;34915;52.926;11.116;2023-04-25T02:57:50;100472.59;;;8.23;100.00
49104;BME280;34915;52.926;11.116;2023-04-25T03:00:15;100472.06;;;8.18;100.00
49104;BME280;34915;52.926;11.116;2023-04-25T03:02:41;100485.59;;;8.26;100.00
49104;BME280;34915;52.926;11.116;2023-04-25T03:05:07;100479.78;;;8.21;100.00
49104;BME280;34915;52.926;11.116;2023-04-25T03:07:32;100481.22;;;8.13;100.00
49104;BME280;34915;52.926;11.116;2023-04-25T03:09:58;100490.94;;;8.12;100.00
49104;BME280;34915;52.926;11.116;2023-04-25T03:12:23;100487.34;;;8.13;100.00
49104;BME280;34915;52.926;11.116;2023-04-25T03:14:49;100496.22;;;8.12;100.00
49104;BME280;34915;52.926;11.116;2023-04-25T03:17:15;100497.72;;;8.02;100.00
49104;BME280;34915;52.926;11.116;2023-04-25T03:19:41;100507.72;;;7.97;100.00
49104;BME280;34915;52.926;11.116;2023-04-25T03:22:06;100505.19;;;7.96;100.00
49104;BME280;34915;52.926;11.116;2023-04-25T03:24:32;100506.22;;;7.93;98.42
49104;BME280;34915;52.926;11.116;2023-04-25T03:26:59;100495.97;;;7.89;98.14
49104;BME280;34915;52.926;11.116;2023-04-25T03:29:25;100510.19;;;7.86;98.15
49104;BME280;34915;52.926;11.116;2023-04-25T03:31:54;100501.53;;;7.84;98.53
49104;BME280;34915;52.926;11.116;2023-04-25T03:34:19;100502.38;;;7.85;99.00
49104;BME280;34915;52.926;11.116;2023-04-25T03:36:47;100505.13;;;7.83;98.36
49104;BME280;34915;52.926;11.116;2023-04-25T03:39:14;100510.00;;;7.89;97.77
49104;BME280;34915;52.926;11.116;2023-04-25T03:41:40;100517.16;;;7.87;97.08
49104;BME280;34915;52.926;11.116;2023-04-25T03:44:05;100515.06;;;7.92;96.29
49104;BME280;34915;52.926;11.116;2023-04-25T03:46:31;100521.47;;;7.88;95.38
49104;BME280;34915;52.926;11.116;2023-04-25T03:48:58;100521.38;;;7.90;94.75
49104;BME280;34915;52.926;11.116;2023-04-25T03:51:25;100516.97;;;7.90;94.83
49104;BME280;34915;52.926;11.116;2023-04-25T03:53:51;100521.75;;;7.84;91.61
49104;BME280;34915;52.926;11.116;2023-04-25T03:56:17;100521.13;;;7.81;90.52
49104;BME280;34915;52.926;11.116;2023-04-25T03:58:43;100520.94;;;7.83;89.17
49104;BME280;34915;52.926;11.116;2023-04-25T04:01:09;100526.69;;;7.76;87.23
49104;BME280;34915;52.926;11.116;2023-04-25T04:03:35;100525.28;;;7.71;85.66
49104;BME280;34915;52.926;11.116;2023-04-25T04:06:04;100532.25;;;7.72;83.07
49104;BME280;34915;52.926;11.116;2023-04-25T04:08:31;100541.09;;;7.71;83.68
49104;BME280;34915;52.926;11.116;2023-04-25T04:10:58;100537.91;;;7.66;84.05
49104;BME280;34915;52.926;11.116;2023-04-25T04:13:26;100533.75;;;7.62;84.28
49104;BME280;34915;52.926;11.116;2023-04-25T04:15:52;100543.94;;;7.68;84.63
49104;BME280;34915;52.926;11.116;2023-04-25T04:18:18;100553.53;;;7.69;84.92
49104;BME280;34915;52.926;11.116;2023-04-25T04:20:44;100560.47;;;7.70;83.68
49104;BME280;34915;52.926;11.116;2023-04-25T04:23:09;100567.47;;;7.71;83.94
49104;BME280;34915;52.926;11.116;2023-04-25T04:25:36;100553.72;;;7.66;83.22
49104;BME280;34915;52.926;11.116;2023-04-25T04:28:02;100574.81;;;7.66;83.30
49104;BME280;34915;52.926;11.116;2023-04-25T04:30:28;100580.09;;;7.66;80.76
49104;BME280;34915;52.926;11.116;2023-04-25T04:32:56;100588.94;;;7.65;80.96
49104;BME280;34915;52.926;11.116;2023-04-25T04:35:22;100587.13;;;7.65;80.86
49104;BME280;34915;52.926;11.116;2023-04-25T04:37:48;100592.50;;;7.64;80.88
49104;BME280;34915;52.926;11.116;2023-04-25T04:40:14;100587.41;;;7.61;81.39
49104;BME280;34915;52.926;11.116;2023-04-25T04:42:41;100601.38;;;7.63;81.93
49104;BME280;34915;52.926;11.116;2023-04-25T04:45:08;100595.91;;;7.66;82.07
49104;BME280;34915;52.926;11.116;2023-04-25T04:47:34;100601.00;;;7.69;82.23
49104;BME280;34915;52.926;11.116;2023-04-25T04:50:03;100602.66;;;7.70;81.59
49104;BME280;34915;52.926;11.116;2023-04-25T04:52:30;100594.56;;;7.59;82.55
49104;BME280;34915;52.926;11.116;2023-04-25T04:54:55;100606.63;;;7.63;82.94
49104;BME280;34915;52.926;11.116;2023-04-25T04:57:21;100622.44;;;7.63;82.48
49104;BME280;34915;52.926;11.116;2023-04-25T04:59:47;100611.03;;;7.62;81.96
49104;BME280;34915;52.926;11.116;2023-04-25T05:02:12;100620.94;;;7.59;82.56
49104;BME280;34915;52.926;11.116;2023-04-25T05:04:38;100630.44;;;7.61;82.63
49104;BME280;34915;52.926;11.116;2023-04-25T05:07:03;100633.94;;;7.62;81.80
49104;BME280;34915;52.926;11.116;2023-04-25T05:09:29;100633.28;;;7.58;83.13
49104;BME280;34915;52.926;11.116;2023-04-25T05:11:55;100629.13;;;7.54;82.99
49104;BME280;34915;52.926;11.116;2023-04-25T05:14:20;100645.13;;;7.51;81.95
49104;BME280;34915;52.926;11.116;2023-04-25T05:16:47;100645.31;;;7.48;81.46
49104;BME280;34915;52.926;11.116;2023-04-25T05:19:12;100654.97;;;7.48;82.87
49104;BME280;34915;52.926;11.116;2023-04-25T05:21:38;100638.31;;;7.47;81.43
49104;BME280;34915;52.926;11.116;2023-04-25T05:24:04;100645.59;;;7.58;81.36
49104;BME280;34915;52.926;11.116;2023-04-25T05:26:29;100644.66;;;7.59;80.64
49104;BME280;34915;52.926;11.116;2023-04-25T05:28:59;100638.81;;;7.54;80.70
49104;BME280;34915;52.926;11.116;2023-04-25T05:31:25;100640.31;;;7.44;79.76
49104;BME280;34915;52.926;11.116;2023-04-25T05:33:51;100639.91;;;7.36;80.07
49104;BME280;34915;52.926;11.116;2023-04-25T05:36:18;100645.16;;;7.36;79.46
49104;BME280;34915;52.926;11.116;2023-04-25T05:38:44;100640.88;;;7.49;80.11
49104;BME280;34915;52.926;11.116;2023-04-25T05:41:09;100637.59;;;7.59;79.57
49104;BME280;34915;52.926;11.116;2023-04-25T05:43:35;100641.28;;;7.71;77.73
49104;BME280;34915;52.926;11.116;2023-04-25T05:46:00;100649.56;;;7.79;78.69
49104;BME280;34915;52.926;11.116;2023-04-25T05:48:26;100649.38;;;7.82;77.69
49104;BME280;34915;52.926;11.116;2023-04-25T05:50:51;100664.66;;;7.90;77.01
49104;BME280;34915;52.926;11.116;2023-04-25T05:53:18;100649.97;;;8.00;76.44
49104;BME280;34915;52.926;11.116;2023-04-25T05:55:44;100652.75;;;8.11;75.83
49104;BME280;34915;52.926;11.116;2023-04-25T05:58:10;100653.53;;;8.13;75.51
49104;BME280;34915;52.926;11.116;2023-04-25T06:00:35;100649.38;;;8.09;73.65
49104;BME280;34915;52.926;11.116;2023-04-25T06:03:01;100657.69;;;8.17;74.33
49104;BME280;34915;52.926;11.116;2023-04-25T06:05:26;100652.31;;;8.33;74.25
49104;BME280;34915;52.926;11.116;2023-04-25T06:07:52;100649.00;;;8.29;73.31
49104;BME280;34915;52.926;11.116;2023-04-25T06:10:18;100653.97;;;8.33;73.91
49104;BME280;34915;52.926;11.116;2023-04-25T06:12:43;100669.16;;;8.30;73.10
49104;BME280;34915;52.926;11.116;2023-04-25T06:15:09;100664.47;;;8.21;72.09
49104;BME280;34915;52.926;11.116;2023-04-25T06:17:35;100661.28;;;8.16;73.04
49104;BME280;34915;52.926;11.116;2023-04-25T06:20:01;100662.56;;;8.23;73.99
49104;BME280;34915;52.926;11.116;2023-04-25T06:22:27;100671.06;;;8.28;74.30
49104;BME280;34915;52.926;11.116;2023-04-25T06:24:52;100666.38;;;8.19;70.60
49104;BME280;34915;52.926;11.116;2023-04-25T06:27:18;100668.53;;;8.27;72.02
49104;BME280;34915;52.926;11.116;2023-04-25T06:29:44;100676.72;;;8.22;69.90
49104;BME280;34915;52.926;11.116;2023-04-25T06:32:09;100688.22;;;8.21;70.45
49104;BME280;34915;52.926;11.116;2023-04-25T06:34:35;100675.19;;;8.32;70.85
49104;BME280;34915;52.926;11.116;2023-04-25T06:37:00;100679.53;;;8.47;70.91
49104;BME280;34915;52.926;11.116;2023-04-25T06:39:26;100674.59;;;8.55;69.83
49104;BME280;34915;52.926;11.116;2023-04-25T06:41:51;100676.88;;;8.47;69.48
49104;BME280;34915;52.926;11.116;2023-04-25T06:44:18;100675.56;;;8.40;67.73
49104;BME280;34915;52.926;11.116;2023-04-25T06:46:44;100681.78;;;8.53;70.77
49104;BME280;34915;52.926;11.116;2023-04-25T06:49:09;100677.22;;;8.69;70.61
49104;BME280;34915;52.926;11.116;2023-04-25T06:51:35;100687.97;;;8.66;67.99
49104;BME280;34915;52.926;11.116;2023-04-25T06:54:00;100685.28;;;8.80;67.42
49104;BME280;34915;52.926;11.116;2023-04-25T06:56:26;100681.50;;;8.83;66.73
49104;BME280;34915;52.926;11.116;2023-04-25T06:58:54;100688.19;;;8.89;65.22
49104;BME280;34915;52.926;11.116;2023-04-25T07:01:20;100690.94;;;8.87;65.12
49104;BME280;34915;52.926;11.116;2023-04-25T07:03:45;100694.72;;;8.83;65.61
49104;BME280;34915;52.926;11.116;2023-04-25T07:06:11;100696.03;;;8.90;64.58
49104;BME280;34915;52.926;11.116;2023-04-25T07:08:36;100691.06;;;8.98;63.62
49104;BME280;34915;52.926;11.116;2023-04-25T07:11:02;100701.22;;;9.04;63.52
49104;BME280;34915;52.926;11.116;2023-04-25T07:13:28;100704.25;;;9.12;64.81
49104;BME280;34915;52.926;11.116;2023-04-25T07:15:53;100701.50;;;9.14;64.77
49104;BME280;34915;52.926;11.116;2023-04-25T07:18:19;100695.13;;;9.16;63.39
49104;BME280;34915;52.926;11.116;2023-04-25T07:20:44;100699.81;;;9.25;62.34
49104;BME280;34915;52.926;11.116;2023-04-25T07:23:10;100704.13;;;9.52;62.78
49104;BME280;34915;52.926;11.116;2023-04-25T07:25:36;100690.16;;;9.63;61.60
49104;BME280;34915;52.926;11.116;2023-04-25T07:28:04;100693.59;;;9.89;61.99
49104;BME280;34915;52.926;11.116;2023-04-25T07:30:30;100702.03;;;9.57;61.76
49104;BME280;34915;52.926;11.116;2023-04-25T07:32:55;100707.06;;;9.48;62.25
49104;BME280;34915;52.926;11.116;2023-04-25T07:35:21;100717.78;;;9.20;61.13
49104;BME280;34915;52.926;11.116;2023-04-25T07:37:47;100712.19;;;8.98;59.96
49104;BME280;34915;52.926;11.116;2023-04-25T07:40:13;100717.88;;;8.92;59.20
49104;BME280;34915;52.926;11.116;2023-04-25T07:42:40;100713.91;;;8.99;59.57
49104;BME280;34915;52.926;11.116;2023-04-25T07:45:07;100711.59;;;9.07;60.12
49104;BME280;34915;52.926;11.116;2023-04-25T07:47:32;100720.28;;;9.09;58.62
49104;BME280;34915;52.926;11.116;2023-04-25T07:49:58;100717.78;;;9.20;58.92
49104;BME280;34915;52.926;11.116;2023-04-25T07:52:23;100719.69;;;9.18;58.81
49104;BME280;34915;52.926;11.116;2023-04-25T07:54:49;100720.28;;;9.09;58.08
49104;BME280;34915;52.926;11.116;2023-04-25T07:57:15;100716.69;;;9.10;58.93
49104;BME280;34915;52.926;11.116;2023-04-25T07:59:42;100713.59;;;9.30;59.89
49104;BME280;34915;52.926;11.116;2023-04-25T08:02:08;100717.22;;;9.54;59.62
49104;BME280;34915;52.926;11.116;2023-04-25T08:04:33;100722.13;;;9.60;58.58
49104;BME280;34915;52.926;11.116;2023-04-25T08:06:59;100729.84;;;9.63;59.15
49104;BME280;34915;52.926;11.116;2023-04-25T08:09:25;100734.91;;;9.53;57.81
49104;BME280;34915;52.926;11.116;2023-04-25T08:11:50;100728.94;;;9.76;60.21
49104;BME280;34915;52.926;11.116;2023-04-25T08:14:16;100744.16;;;9.73;59.94
49104;BME280;34915;52.926;11.116;2023-04-25T08:16:42;100740.03;;;9.81;59.50
49104;BME280;34915;52.926;11.116;2023-04-25T08:19:08;100740.41;;;9.63;59.32
49104;BME280;34915;52.926;11.116;2023-04-25T08:21:33;100751.41;;;9.57;60.42
49104;BME280;34915;52.926;11.116;2023-04-25T08:23:59;100747.19;;;9.54;59.09
49104;BME280;34915;52.926;11.116;2023-04-25T08:26:24;100760.63;;;9.64;59.96
49104;BME280;34915;52.926;11.116;2023-04-25T08:28:50;100760.88;;;9.47;59.81
49104;BME280;34915;52.926;11.116;2023-04-25T08:31:16;100756.78;;;9.43;60.11
49104;BME280;34915;52.926;11.116;2023-04-25T08:33:42;100769.22;;;9.41;60.03
49104;BME280;34915;52.926;11.116;2023-04-25T08:36:11;100773.06;;;9.49;60.44
49104;BME280;34915;52.926;11.116;2023-04-25T08:38:36;100771.13;;;9.39;59.94
49104;BME280;34915;52.926;11.116;2023-04-25T08:41:04;100769.22;;;9.41;61.16
49104;BME280;34915;52.926;11.116;2023-04-25T08:43:31;100781.09;;;9.48;60.25
49104;BME280;34915;52.926;11.116;2023-04-25T08:45:59;100769.03;;;9.44;60.89
49104;BME280;34915;52.926;11.116;2023-04-25T08:48:27;100775.81;;;9.48;62.60
49104;BME280;34915;52.926;11.116;2023-04-25T08:50:55;100783.91;;;9.59;62.18
49104;BME280;34915;52.926;11.116;2023-04-25T08:53:29;100797.88;;;9.61;63.03
49104;BME280;34915;52.926;11.116;2023-04-25T08:55:57;100773.13;;;9.62;62.12
49104;BME280;34915;52.926;11.116;2023-04-25T08:58:22;100799.16;;;9.68;60.90
49104;BME280;34915;52.926;11.116;2023-04-25T09:00:49;100798.97;;;9.71;59.03
49104;BME280;34915;52.926;11.116;2023-04-25T09:03:16;100800.25;;;9.78;60.22
49104;BME280;34915;52.926;11.116;2023-04-25T09:05:42;100797.31;;;9.82;58.84
49104;BME280;34915;52.926;11.116;2023-04-25T09:08:08;100799.84;;;9.83;59.94
49104;BME280;34915;52.926;11.116;2023-04-25T09:10:34;100812.91;;;9.73;61.91
49104;BME280;34915;52.926;11.116;2023-04-25T09:13:11;100804.00;;;9.61;62.93
49104;BME280;34915;52.926;11.116;2023-04-25T09:18:23;100821.53;;;9.50;62.66
49104;BME280;34915;52.926;11.116;2023-04-25T09:20:51;100827.44;;;9.27;62.39
49104;BME280;34915;52.926;11.116;2023-04-25T09:23:19;100845.06;;;8.86;64.35
49104;BME280;34915;52.926;11.116;2023-04-25T09:25:47;100868.69;;;8.03;72.19
49104;BME280;34915;52.926;11.116;2023-04-25T09:28:13;100863.25;;;7.62;79.02
49104;BME280;34915;52.926;11.116;2023-04-25T09:30:38;100853.53;;;7.62;79.59
49104;BME280;34915;52.926;11.116;2023-04-25T09:33:11;100853.88;;;7.72;78.87
49104;BME280;34915;52.926;11.116;2023-04-25T09:35:39;100848.16;;;8.08;78.47
49104;BME280;34915;52.926;11.116;2023-04-25T09:38:13;100848.06;;;8.25;76.28
49104;BME280;34915;52.926;11.116;2023-04-25T09:40:44;100855.25;;;8.65;76.73
49104;BME280;34915;52.926;11.116;2023-04-25T09:43:17;100855.81;;;8.83;73.24
49104;BME280;34915;52.926;11.116;2023-04-25T09:45:43;100847.31;;;9.06;69.83
49104;BME280;34915;52.926;11.116;2023-04-25T09:48:12;100854.88;;;8.98;67.37
49104;BME280;34915;52.926;11.116;2023-04-25T09:50:38;100858.78;;;9.19;66.79
49104;BME280;34915;52.926;11.116;2023-04-25T09:53:05;100852.28;;;9.25;66.70
49104;BME280;34915;52.926;11.116;2023-04-25T09:55:34;100874.41;;;9.50;64.46
49104;BME280;34915;52.926;11.116;2023-04-25T09:58:04;100854.59;;;9.43;61.85
49104;BME280;34915;52.926;11.116;2023-04-25T10:00:31;100865.56;;;9.37;61.80
49104;BME280;34915;52.926;11.116;2023-04-25T10:02:57;100864.19;;;9.44;62.51
49104;BME280;34915;52.926;11.116;2023-04-25T10:05:25;100853.38;;;9.87;63.90
49104;BME280;34915;52.926;11.116;2023-04-25T10:07:53;100862.41;;;10.23;61.72
49104;BME280;34915;52.926;11.116;2023-04-25T10:10:18;100854.19;;;10.40;58.55
49104;BME280;34915;52.926;11.116;2023-04-25T10:12:45;100860.72;;;10.72;58.29
49104;BME280;34915;52.926;11.116;2023-04-25T10:15:12;100863.50;;;10.82;57.98
49104;BME280;34915;52.926;11.116;2023-04-25T10:17:39;100864.56;;;10.68;56.04
49104;BME280;34915;52.926;11.116;2023-04-25T10:20:06;100872.81;;;10.76;56.67
49104;BME280;34915;52.926;11.116;2023-04-25T10:22:38;100863.69;;;10.67;54.14
49104;BME280;34915;52.926;11.116;2023-04-25T10:25:05;100870.91;;;10.53;54.68
49104;BME280;34915;52.926;11.116;2023-04-25T10:27:32;100869.44;;;10.74;56.39
49104;BME280;34915;52.926;11.116;2023-04-25T10:30:08;100883.00;;;10.69;54.86
49104;BME280;34915;52.926;11.116;2023-04-25T10:32:38;100878.31;;;10.73;54.30
49104;BME280;34915;52.926;11.116;2023-04-25T10:35:15;100881.72;;;10.62;55.76
49104;BME280;34915;52.926;11.116;2023-04-25T10:40:23;100894.63;;;10.03;58.50
49104;BME280;34915;52.926;11.116;2023-04-25T10:42:52;100901.19;;;9.72;59.76
49104;BME280;34915;52.926;11.116;2023-04-25T10:45:19;100898.66;;;9.56;61.90
49104;BME280;34915;52.926;11.116;2023-04-25T10:47:45;100912.72;;;9.57;61.63
49104;BME280;34915;52.926;11.116;2023-04-25T10:50:14;100904.44;;;9.49;61.58
49104;BME280;34915;52.926;11.116;2023-04-25T10:52:42;100901.41;;;9.41;61.66
49104;BME280;34915;52.926;11.116;2023-04-25T10:55:10;100906.69;;;9.55;61.35
49104;BME280;34915;52.926;11.116;2023-04-25T10:57:42;100897.47;;;9.74;58.86
49104;BME280;34915;52.926;11.116;2023-04-25T11:02:41;100896.75;;;9.98;57.21
49104;BME280;34915;52.926;11.116;2023-04-25T11:05:09;100892.00;;;10.03;58.04
49104;BME280;34915;52.926;11.116;2023-04-25T11:07:54;100897.06;;;10.06;58.04
49104;BME280;34915;52.926;11.116;2023-04-25T11:10:28;100899.25;;;10.26;59.53
49104;BME280;34915;52.926;11.116;2023-04-25T11:12:57;100890.72;;;9.96;59.56
49104;BME280;34915;52.926;11.116;2023-04-25T11:15:23;100900.91;;;10.02;59.98
49104;BME280;34915;52.926;11.116;2023-04-25T11:17:51;100889.53;;;10.00;59.57
49104;BME280;34915;52.926;11.116;2023-04-25T11:20:17;100891.56;;;10.09;59.60
49104;BME280;34915;52.926;11.116;2023-04-25T11:22:45;100878.75;;;10.42;58.86
49104;BME280;34915;52.926;11.116;2023-04-25T11:25:12;100887.00;;;10.75;57.37
49104;BME280;34915;52.926;11.116;2023-04-25T11:27:52;100892.94;;;10.90;56.58
49104;BME280;34915;52.926;11.116;2023-04-25T11:30:19;100884.69;;;10.82;55.09
49104;BME280;34915;52.926;11.116;2023-04-25T11:32:45;100889.97;;;11.07;56.17
49104;BME280;34915;52.926;11.116;2023-04-25T11:35:12;100900.31;;;11.35;56.12
49104;BME280;34915;52.926;11.116;2023-04-25T11:37:42;100894.22;;;10.97;55.24
49104;BME280;34915;52.926;11.116;2023-04-25T11:40:08;100901.22;;;10.98;56.68
49104;BME280;34915;52.926;11.116;2023-04-25T11:42:44;100904.84;;;10.60;57.37
49104;BME280;34915;52.926;11.116;2023-04-25T11:45:10;100915.56;;;10.20;59.59
49104;BME280;34915;52.926;11.116;2023-04-25T11:47:36;100921.88;;;10.05;63.45
49104;BME280;34915;52.926;11.116;2023-04-25T11:50:03;100936.50;;;9.71;66.20
49104;BME280;34915;52.926;11.116;2023-04-25T11:52:43;100951.09;;;9.36;66.45
49104;BME280;34915;52.926;11.116;2023-04-25T11:55:13;100966.00;;;8.95;67.47
49104;BME280;34915;52.926;11.116;2023-04-25T11:57:40;100986.84;;;8.43;69.61
49104;BME280;34915;52.926;11.116;2023-04-25T12:00:13;100993.53;;;8.19;72.65
49104;BME280;34915;52.926;11.116;2023-04-25T12:02:44;100984.50;;;7.92;75.57
49104;BME280;34915;52.926;11.116;2023-04-25T12:05:12;100981.63;;;7.82;76.56
49104;BME280;34915;52.926;11.116;2023-04-25T12:07:38;100977.53;;;7.76;73.05
49104;BME280;34915;52.926;11.116;2023-04-25T12:10:05;100970.91;;;7.84;72.63
49104;BME280;34915;52.926;11.116;2023-04-25T12:12:35;100976.75;;;7.89;72.62
49104;BME280;34915;52.926;11.116;2023-04-25T12:15:15;100968.69;;;7.92;72.39
49104;BME280;34915;52.926;11.116;2023-04-25T12:17:42;100966.47;;;8.00;71.75
49104;BME280;34915;52.926;11.116;2023-04-25T12:20:18;100960.84;;;8.06;70.54
49104;BME280;34915;52.926;11.116;2023-04-25T12:22:46;100963.19;;;8.26;70.21
49104;BME280;34915;52.926;11.116;2023-04-25T12:25:13;100947.63;;;8.51;68.64
49104;BME280;34915;52.926;11.116;2023-04-25T12:27:40;100951.09;;;8.81;65.72
49104;BME280;34915;52.926;11.116;2023-04-25T12:30:08;100944.31;;;9.04;63.94
49104;BME280;34915;52.926;11.116;2023-04-25T12:32:34;100940.78;;;9.45;64.03
49104;BME280;34915;52.926;11.116;2023-04-25T12:34:59;100931.94;;;9.86;59.95
49104;BME280;34915;52.926;11.116;2023-04-25T12:37:25;100941.13;;;10.07;58.12
49104;BME280;34915;52.926;11.116;2023-04-25T12:39:50;100943.03;;;10.05;58.08
49104;BME280;34915;52.926;11.116;2023-04-25T12:42:16;100945.06;;;10.53;57.76
49104;BME280;34915;52.926;11.116;2023-04-25T12:44:42;100946.16;;;10.75;58.05
49104;BME280;34915;52.926;11.116;2023-04-25T12:47:07;100934.09;;;10.83;56.49
49104;BME280;34915;52.926;11.116;2023-04-25T12:49:33;100931.53;;;10.70;57.31
49104;BME280;34915;52.926;11.116;2023-04-25T12:51:58;100949.31;;;10.55;59.96
49104;BME280;34915;52.926;11.116;2023-04-25T12:54:24;100999.44;;;9.52;66.62
49104;BME280;34915;52.926;11.116;2023-04-25T12:56:51;100996.50;;;8.58;75.55
49104;BME280;34915;52.926;11.116;2023-04-25T12:59:16;101004.56;;;7.80;79.43
49104;BME280;34915;52.926;11.116;2023-04-25T13:01:42;101015.44;;;7.43;80.48